Friday, January 19, 2018, 9:39 AM CST
Back to Local

KPPF, Parsons Tri-city Airport

Location: Cherryvale, KS, United States Lat: 37.333
Local Time: 9:39 AM CST (15:39 GMT) Lon: -95.5
Time Zone: US/Central Elev: 898 ft

Show me the last for .
Show Decoded

2018-01-19 08:52 METAR KPPF 191452Z AUTO 20010G16KT 10SM CLR 01/M07 A3004 RMK AO2 SLP177
                 T00061067 56008 =
2018-01-19 07:52 METAR KPPF 191352Z AUTO 19009KT 10SM CLR M02/M08 A3004 RMK AO2 SLP179 T10171078
                 =
2018-01-19 06:52 METAR KPPF 191252Z AUTO 18007KT 10SM CLR M02/M08 A3005 RMK AO2 SLP181 T10221083
                 =
2018-01-19 05:52 METAR KPPF 191152Z AUTO 18008KT 10SM CLR M02/M08 A3006 RMK AO2 SLP185 T10221083
                 10011 21022 58012 =
2018-01-19 04:52 METAR KPPF 191052Z AUTO 18007KT 10SM CLR M02/M08 A3007 RMK AO2 SLP188 T10171083
                 =
2018-01-19 03:52 METAR KPPF 190952Z AUTO 20007KT 10SM CLR M01/M09 A3010 RMK AO2 SLP198 T10111089
                 =
2018-01-19 02:52 METAR KPPF 190852Z AUTO 18009KT 10SM CLR M01/M09 A3010 RMK AO2 SLP197 T10061089
                 56016 =
2018-01-19 01:52 METAR KPPF 190752Z AUTO 19008KT 10SM CLR 00/M09 A3012 RMK AO2 SLP205 T00001089 =
2018-01-19 00:52 METAR KPPF 190652Z AUTO 20010G18KT 10SM CLR 01/M09 A3013 RMK AO2 SLP207
                 T00061089 =
2018-01-18 23:52 METAR KPPF 190552Z AUTO 19010KT 10SM CLR 01/M09 A3015 RMK AO2 SLP216 T00111089
                 10044 20006 400721094 58010 =
2018-01-18 22:52 METAR KPPF 190452Z AUTO 19009G17KT 10SM CLR 02/M09 A3016 RMK AO2 SLP219
                 T00171089 =
2018-01-18 21:52 METAR KPPF 190352Z AUTO 19007KT 10SM CLR 01/M08 A3017 RMK AO2 SLP225 T00061078 =
2018-01-18 20:52 METAR KPPF 190252Z AUTO 19005KT 10SM CLR 01/M08 A3018 RMK AO2 SLP229 T00111078
                 51008 =
2018-01-18 19:52 METAR KPPF 190152Z AUTO 18005KT 10SM CLR 02/M07 A3018 RMK AO2 SLP229 T00171072 =
2018-01-18 18:52 METAR KPPF 190052Z AUTO 18005KT 10SM CLR 03/M07 A3017 RMK AO2 SLP226 T00331067 =
2018-01-18 17:52 METAR KPPF 182352Z AUTO 18008KT 10SM CLR 04/M07 A3016 RMK AO2 SLP221 T00441067
                 10072 20000 56008 =
2018-01-18 16:52 METAR KPPF 182252Z AUTO 17005KT 10SM CLR 06/M07 A3016 RMK AO2 SLP222 T00611067 =
2018-01-18 15:52 METAR KPPF 182152Z AUTO 18011KT 10SM CLR 07/M06 A3015 RMK AO2 SLP216 T00721056 =
2018-01-18 14:52 METAR KPPF 182052Z AUTO 18011KT 10SM CLR 06/M06 A3018 RMK AO2 SLP228 T00611061
                 58040 =
2018-01-18 13:52 METAR KPPF 181952Z AUTO 18007KT 10SM CLR 04/M06 A3023 RMK AO2 SLP245 T00441061 =
2018-01-18 12:52 METAR KPPF 181852Z AUTO 19009G17KT 10SM CLR 02/M07 A3027 RMK AO2 SLP261
                 T00221072 =
2018-01-18 11:52 METAR KPPF 181752Z AUTO 19010KT 10SM CLR 00/M07 A3030 RMK AO2 SLP272 T00001072
                 10000 21089 58020 =
2018-01-18 10:52 METAR KPPF 181652Z AUTO 18011G17KT 10SM CLR M02/M09 A3034 RMK AO2 SLP286
                 T10171089 =
2018-01-18 10:28 METAR KPPF 181628Z AUTO 19008G17KT 10SM FEW002 M03/M09 A3035 RMK AO2 T10281094 =
2018-01-18 09:52 METAR KPPF 181552Z AUTO 19010KT 10SM CLR M04/M11 A3036 RMK AO2 SLP292 T10391106
                 =

Support USWX by starting your Amazon purchase here.